Time;durP1;ratioP1;P1;durP2;ratioP2;P2;SDS_P1;SDS_P2;PMS_P1;PMS_P2;Temp;Humidity;BMP_temperature;BMP_pressure;BME280_temperature;BME280_humidity;BME280_pressure;Samples;Min_cycle;Max_cycle;Signal;HPM_P1;HPM_P2
2023/07/21 00:00:46;;;;;;;7.90;4.82;;;;;;;20.63;64.99;92457.47;2044790;70;20132;-77
2023/07/21 00:03:11;;;;;;;8.38;4.35;;;;;;;20.79;64.57;92452.03;2041310;70;20576;-76
2023/07/21 00:05:42;;;;;;;12.65;4.63;;;;;;;20.74;64.53;92448.38;2044667;70;20222;-77
2023/07/21 00:08:09;;;;;;;10.38;4.85;;;;;;;20.15;66.14;92415.00;2041637;70;20155;-77
2023/07/21 00:10:35;;;;;;;10.85;5.50;;;;;;;20.31;65.82;92426.78;2044964;70;20246;-77
2023/07/21 00:13:02;;;;;;;10.48;5.10;;;;;;;20.39;68.31;92420.47;2044690;70;20593;-77
2023/07/21 00:15:29;;;;;;;10.43;5.30;;;;;;;20.54;69.73;92428.69;2044770;70;20182;-76
2023/07/21 00:21:43;;;;;;;6.57;5.10;;;;;;;20.21;72.28;92441.59;2043080;70;20197;-75
2023/07/21 00:24:11;;;;;;;7.78;5.57;;;;;;;19.71;73.91;92450.50;2044458;70;20645;-77
2023/07/21 00:26:46;;;;;;;9.05;5.00;;;;;;;20.10;72.72;92434.19;2044430;70;20628;-79
2023/07/21 00:29:15;;;;;;;11.75;5.38;;;;;;;20.02;72.06;92431.91;2044544;70;20647;-77
2023/07/21 00:31:48;;;;;;;10.02;5.40;;;;;;;20.03;70.85;92436.22;2044334;70;20182;-77
2023/07/21 00:34:14;;;;;;;9.73;5.10;;;;;;;19.90;73.05;92445.91;2044335;70;20477;-77
2023/07/21 00:36:40;;;;;;;9.48;5.05;;;;;;;19.93;73.38;92447.44;2040809;70;20711;-77
2023/07/21 00:39:09;;;;;;;7.90;5.10;;;;;;;20.10;72.34;92442.78;2040833;70;20154;-78
2023/07/21 00:41:40;;;;;;;9.35;5.20;;;;;;;20.06;72.09;92440.53;2041197;70;20147;-77
2023/07/21 00:44:13;;;;;;;7.00;5.30;;;;;;;19.94;73.58;92433.88;2044733;70;20131;-78
2023/07/21 00:46:55;;;;;;;10.77;5.78;;;;;;;19.85;74.29;92432.97;2041561;70;20150;-76
2023/07/21 00:49:28;;;;;;;9.65;5.30;;;;;;;19.89;74.51;92424.47;2044196;70;20234;-78
2023/07/21 00:52:05;;;;;;;7.20;4.45;;;;;;;20.02;72.90;92429.06;2044510;70;20162;-78
2023/07/21 00:54:38;;;;;;;9.65;5.00;;;;;;;19.77;74.99;92427.78;2044549;70;20186;-78
2023/07/21 00:57:09;;;;;;;8.95;5.22;;;;;;;19.97;72.45;92418.19;2040863;70;20540;-77
2023/07/21 00:59:42;;;;;;;7.00;4.88;;;;;;;20.05;73.79;92430.53;2044504;70;20154;-76
2023/07/21 01:02:09;;;;;;;9.25;5.10;;;;;;;20.11;71.58;92434.91;2044537;70;20238;-77
2023/07/21 01:04:39;;;;;;;9.38;5.60;;;;;;;19.77;74.34;92439.19;2041158;70;20142;-77
2023/07/21 01:07:11;;;;;;;7.18;5.03;;;;;;;19.90;74.17;92445.91;2041596;70;20170;-76
2023/07/21 01:09:39;;;;;;;12.38;5.57;;;;;;;19.74;75.09;92439.81;2041543;70;20616;-77
2023/07/21 01:12:13;;;;;;;10.65;5.63;;;;;;;19.81;74.99;92424.28;2041210;70;20151;-78
2023/07/21 01:14:41;;;;;;;8.05;5.85;;;;;;;19.85;74.10;92418.69;2044208;70;20190;-77
2023/07/21 01:17:11;;;;;;;8.30;5.53;;;;;;;19.88;74.75;92408.72;2033475;70;20178;-78
2023/07/21 01:19:38;;;;;;;6.22;5.20;;;;;;;19.92;74.80;92411.66;2033977;70;20144;-78
2023/07/21 01:22:51;;;;;;;8.15;5.35;;;;;;;19.82;74.89;92400.03;2030873;70;20644;-77
2023/07/21 01:25:22;;;;;;;6.32;5.00;;;;;;;19.88;75.18;92405.16;2020573;71;20173;-76
2023/07/21 01:27:53;;;;;;;14.43;5.63;;;;;;;19.76;76.77;92417.78;2020471;71;20141;-77
2023/07/21 01:30:20;;;;;;;7.13;5.30;;;;;;;19.85;75.36;92418.69;2020586;71;20158;-79
2023/07/21 01:32:50;;;;;;;7.60;5.00;;;;;;;19.90;74.57;92405.94;2020613;71;20207;-78
2023/07/21 01:35:18;;;;;;;8.63;5.32;;;;;;;19.87;75.26;92409.41;2020486;71;20260;-78
2023/07/21 01:37:49;;;;;;;10.93;5.38;;;;;;;19.79;76.58;92410.69;2020590;71;20192;-77
2023/07/21 01:40:17;;;;;;;8.45;5.13;;;;;;;19.82;76.21;92405.75;2020521;71;20558;-77
2023/07/21 01:42:54;;;;;;;12.35;5.82;;;;;;;19.96;75.33;92393.91;2020705;71;20516;-77
2023/07/21 01:45:26;;;;;;;10.13;5.82;;;;;;;19.85;76.38;92390.13;2020991;71;20153;-78
2023/07/21 01:47:56;;;;;;;;;;;;;;;19.97;72.82;92378.19;2021199;71;20153;-76
2023/07/21 01:50:27;;;;;;;9.65;5.80;;;;;;;19.52;76.11;92363.69;2020778;71;20053;-78
2023/07/21 01:53:08;;;;;;;13.50;5.65;;;;;;;19.73;75.66;92373.44;2020904;71;20149;-77
2023/07/21 01:55:49;;;;;;;7.65;5.60;;;;;;;19.74;75.69;92365.59;2026644;70;20661;-77
2023/07/21 01:58:19;;;;;;;8.13;6.03;;;;;;;19.56;76.55;92357.31;2024278;70;20173;-77
2023/07/21 02:00:49;;;;;;;9.85;6.20;;;;;;;19.66;76.33;92377.56;2031946;70;20149;-77
2023/07/21 02:03:16;;;;;;;12.38;5.95;;;;;;;19.56;76.33;92383.00;2044742;70;20185;-77
2023/07/21 02:05:42;;;;;;;9.60;5.90;;;;;;;19.77;75.70;92395.63;2038195;70;20162;-77
2023/07/21 02:08:09;;;;;;;9.73;5.90;;;;;;;19.82;75.78;92399.31;2044162;70;20131;-77
2023/07/21 02:10:36;;;;;;;9.88;6.20;;;;;;;19.62;77.19;92403.19;2040864;70;20135;-76
2023/07/21 02:13:19;;;;;;;9.02;5.82;;;;;;;19.70;74.47;92402.63;2043878;70;20157;-76
2023/07/21 02:15:47;;;;;;;6.95;5.78;;;;;;;19.80;73.45;92406.44;2043775;70;20166;-77
2023/07/21 02:18:15;;;;;;;7.88;6.00;;;;;;;19.63;76.12;92407.47;2041049;70;20169;-76
2023/07/21 02:20:41;;;;;;;10.60;5.47;;;;;;;19.75;75.86;92402.03;2041076;70;20195;-77
2023/07/21 02:23:08;;;;;;;10.07;5.88;;;;;;;19.69;76.36;92390.47;2040890;70;20240;-77
2023/07/21 02:25:38;;;;;;;7.78;5.85;;;;;;;19.67;76.54;92386.84;2041245;70;20257;-77
2023/07/21 02:28:08;;;;;;;8.23;5.65;;;;;;;19.48;76.57;92386.41;2044362;70;20151;-77
2023/07/21 02:30:34;;;;;;;8.45;6.05;;;;;;;19.51;77.23;92367.91;2044138;70;20150;-76
2023/07/21 02:33:00;;;;;;;7.93;5.75;;;;;;;19.72;74.90;92362.69;2040865;70;20213;-77
2023/07/21 02:35:25;;;;;;;6.63;5.40;;;;;;;19.60;75.90;92351.72;2038486;70;20679;-76
2023/07/21 02:37:51;;;;;;;10.80;6.03;;;;;;;19.61;76.33;92350.34;2040960;70;20259;-76
2023/07/21 02:40:18;;;;;;;6.93;6.07;;;;;;;19.61;76.43;92341.78;2044309;70;20234;-76
2023/07/21 02:42:45;;;;;;;9.13;5.25;;;;;;;19.41;78.09;92344.88;2044412;70;20141;-76
2023/07/21 02:45:14;;;;;;;12.55;6.10;;;;;;;19.51;76.61;92364.34;2041066;70;20198;-77
2023/07/21 02:47:40;;;;;;;9.60;5.60;;;;;;;19.59;76.49;92369.50;2040920;70;20147;-77
2023/07/21 02:50:09;;;;;;;12.35;6.20;;;;;;;19.47;76.61;92369.97;2044154;70;20177;-76
2023/07/21 02:52:38;;;;;;;12.48;5.70;;;;;;;19.09;80.03;92381.94;2041261;70;20240;-76
2023/07/21 02:55:06;;;;;;;9.48;5.75;;;;;;;19.34;78.65;92386.09;2041416;70;20230;-76
2023/07/21 02:57:32;;;;;;;8.52;5.90;;;;;;;19.24;79.95;92388.69;2041322;70;20170;-76
2023/07/21 02:59:58;;;;;;;10.40;5.70;;;;;;;19.25;80.01;92396.59;2041473;70;20135;-76
2023/07/21 03:02:35;;;;;;;10.07;5.72;;;;;;;19.45;78.11;92384.19;2041407;70;20270;-76
2023/07/21 03:05:04;;;;;;;11.95;6.68;;;;;;;19.54;76.90;92377.25;2044659;70;20194;-76
2023/07/21 03:07:30;;;;;;;8.40;6.13;;;;;;;19.46;78.08;92389.22;2041361;70;20151;-76
2023/07/21 03:10:02;;;;;;;11.20;5.85;;;;;;;19.57;76.66;92392.31;2041430;70;20162;-76
2023/07/21 03:12:33;;;;;;;8.20;5.80;;;;;;;19.49;77.62;92373.59;2041404;70;20171;-77
2023/07/21 03:15:10;;;;;;;8.32;5.75;;;;;;;19.44;77.61;92360.63;2044050;70;20170;-77
2023/07/21 03:17:55;;;;;;;8.75;5.90;;;;;;;19.41;77.86;92367.69;2041419;70;20534;-77
2023/07/21 03:20:21;;;;;;;9.95;5.85;;;;;;;19.40;76.69;92363.41;2041397;70;20190;-77
2023/07/21 03:22:47;;;;;;;7.80;5.70;;;;;;;19.45;77.38;92373.50;2041290;70;20147;-77
2023/07/21 03:25:14;;;;;;;8.43;6.00;;;;;;;19.35;78.39;92375.41;2041370;70;20262;-77
2023/07/21 03:27:41;;;;;;;11.65;5.88;;;;;;;19.37;78.35;92373.31;2041429;70;20146;-77
2023/07/21 03:30:09;;;;;;;13.15;6.80;;;;;;;19.32;78.42;92376.75;2041384;70;20246;-76
2023/07/21 03:32:40;;;;;;;11.48;5.93;;;;;;;19.37;78.28;92373.31;2041383;70;20165;-77
2023/07/21 03:35:06;;;;;;;9.00;5.70;;;;;;;19.42;77.39;92374.13;2041250;70;20163;-77
2023/07/21 03:37:34;;;;;;;12.32;5.82;;;;;;;19.36;77.22;92362.56;2041262;70;20218;-77
2023/07/21 03:40:07;;;;;;;10.30;6.05;;;;;;;19.28;77.38;92371.66;2041354;70;20600;-76
2023/07/21 03:42:34;;;;;;;9.27;5.97;;;;;;;19.25;78.46;92370.91;2041552;70;20151;-77
2023/07/21 03:45:03;;;;;;;7.88;5.80;;;;;;;19.26;77.68;92363.06;2039190;70;20246;-77
2023/07/21 03:47:34;;;;;;;12.25;5.82;;;;;;;19.38;77.98;92360.50;2041855;70;20600;-77
2023/07/21 03:49:59;;;;;;;12.32;6.38;;;;;;;19.26;79.04;92355.22;2041546;70;20616;-77
2023/07/21 03:52:27;;;;;;;8.05;5.72;;;;;;;19.21;78.96;92359.41;2041709;70;20155;-77
2023/07/21 03:54:53;;;;;;;10.35;5.72;;;;;;;19.19;79.90;92370.03;2044446;70;20617;-77
2023/07/21 03:57:20;;;;;;;10.48;6.28;;;;;;;19.12;78.80;92377.72;2044404;70;20536;-77
2023/07/21 03:59:49;;;;;;;8.13;6.15;;;;;;;19.26;78.90;92380.19;2041738;70;20143;-77
2023/07/21 04:02:18;;;;;;;8.55;5.68;;;;;;;19.24;78.63;92380.13;2045055;70;20234;-77
2023/07/21 04:04:48;;;;;;;12.77;5.95;;;;;;;19.23;78.97;92373.69;2045074;70;20155;-77
2023/07/21 04:07:14;;;;;;;7.47;5.60;;;;;;;19.35;77.88;92384.69;2041693;70;20246;-77
2023/07/21 04:09:40;;;;;;;15.93;6.63;;;;;;;19.04;79.90;92378.25;2045032;70;20562;-77
2023/07/21 04:12:07;;;;;;;8.30;6.40;;;;;;;19.05;79.88;92391.09;2045068;70;20179;-77
2023/07/21 04:14:33;;;;;;;7.28;6.10;;;;;;;19.30;78.30;92386.72;2044920;70;20232;-78
2023/07/21 04:16:58;;;;;;;12.55;5.75;;;;;;;19.30;77.86;92377.44;2041753;70;20142;-77
2023/07/21 04:19:27;;;;;;;8.63;6.43;;;;;;;19.37;78.79;92381.88;2044983;70;20228;-78
2023/07/21 04:21:54;;;;;;;11.15;6.15;;;;;;;19.21;79.44;92382.22;2041636;70;20295;-77
2023/07/21 04:24:20;;;;;;;8.95;6.05;;;;;;;19.17;79.73;92390.69;2041696;70;20151;-77
2023/07/21 04:26:46;;;;;;;10.30;6.18;;;;;;;19.04;79.70;92400.34;2041683;70;20151;-77
2023/07/21 04:29:12;;;;;;;7.28;5.55;;;;;;;19.24;79.10;92391.53;2041686;70;20163;-78
2023/07/21 04:31:39;;;;;;;12.02;6.50;;;;;;;19.30;78.81;92395.28;2041785;70;20152;-77
2023/07/21 04:34:08;;;;;;;10.63;6.25;;;;;;;19.25;79.40;92388.03;2041626;70;20166;-78
2023/07/21 04:36:35;;;;;;;8.20;6.22;;;;;;;19.28;78.35;92388.78;2044398;70;20159;-78
2023/07/21 04:39:06;;;;;;;6.43;5.50;;;;;;;19.36;78.28;92391.13;2041734;70;20151;-78
2023/07/21 04:41:32;;;;;;;7.53;5.50;;;;;;;19.34;77.80;92391.81;2041686;70;20161;-77
2023/07/21 04:43:58;;;;;;;9.05;6.28;;;;;;;18.91;80.46;92410.72;2041714;70;20529;-77
2023/07/21 04:46:23;;;;;;;8.68;5.88;;;;;;;19.09;80.27;92404.75;2041651;70;20158;-78
2023/07/21 04:48:50;;;;;;;8.82;6.63;;;;;;;18.99;80.53;92416.63;2041791;70;20139;-78
2023/07/21 04:51:25;;;;;;;8.80;6.45;;;;;;;19.12;80.03;92396.97;2041659;70;20604;-78
2023/07/21 04:53:50;;;;;;;9.65;6.20;;;;;;;19.16;80.02;92399.94;2041510;70;20228;-78
2023/07/21 04:56:16;;;;;;;11.07;6.90;;;;;;;19.29;79.38;92399.53;2041608;70;20525;-79
2023/07/21 04:58:53;;;;;;;12.85;7.22;;;;;;;19.23;79.54;92396.53;2041602;70;20244;-78
2023/07/21 05:01:19;;;;;;;8.90;6.60;;;;;;;19.18;79.51;92391.41;2041646;70;20668;-77
2023/07/21 05:03:44;;;;;;;10.43;6.95;;;;;;;19.28;78.83;92383.09;2041625;70;20155;-77
2023/07/21 05:06:11;;;;;;;10.98;7.43;;;;;;;19.43;78.82;92381.31;2041628;70;20182;-77
2023/07/21 05:08:39;;;;;;;11.10;6.80;;;;;;;19.63;78.50;92378.19;2041573;70;20139;-77
2023/07/21 05:11:05;;;;;;;10.27;6.80;;;;;;;19.56;78.55;92380.16;2044362;70;20250;-78
2023/07/21 05:13:30;;;;;;;8.45;6.82;;;;;;;19.62;77.75;92368.19;2041590;70;20155;-77
2023/07/21 05:16:11;;;;;;;11.40;6.85;;;;;;;19.73;77.67;92370.56;2041708;70;20245;-78
2023/07/21 05:18:41;;;;;;;11.25;6.70;;;;;;;19.77;78.03;92372.78;2041641;70;20242;-77
2023/07/21 05:21:26;;;;;;;8.93;6.90;;;;;;;19.62;77.37;92366.06;2039132;70;20617;-77
2023/07/21 05:24:03;;;;;;;7.88;6.60;;;;;;;19.50;78.31;92366.47;2041584;70;20155;-77
2023/07/21 05:26:33;;;;;;;9.93;7.20;;;;;;;19.33;80.21;92364.66;2041548;70;20207;-77
2023/07/21 05:28:58;;;;;;;9.45;7.47;;;;;;;19.35;79.10;92366.84;2041553;70;20162;-78
2023/07/21 05:31:33;;;;;;;10.73;7.38;;;;;;;19.34;79.60;92357.56;2041650;70;20521;-77
2023/07/21 05:34:01;;;;;;;10.32;7.57;;;;;;;19.59;79.51;92350.25;2041685;70;20161;-78
2023/07/21 05:36:28;;;;;;;11.18;7.30;;;;;;;19.94;77.03;92346.03;2041464;70;20143;-77
2023/07/21 05:38:54;;;;;;;11.15;6.38;;;;;;;19.92;77.42;92356.69;2041564;70;20134;-78
2023/07/21 05:41:20;;;;;;;9.75;6.68;;;;;;;20.03;76.49;92344.78;2041528;70;20157;-79
2023/07/21 05:43:45;;;;;;;11.82;7.50;;;;;;;19.43;79.07;92333.50;2044359;70;20155;-78
2023/07/21 05:46:12;;;;;;;12.40;7.57;;;;;;;19.44;78.95;92334.94;2041592;70;20170;-78
2023/07/21 05:48:45;;;;;;;10.38;7.70;;;;;;;19.21;80.74;92330.16;2041782;70;20165;-80
2023/07/21 05:51:12;;;;;;;12.48;8.02;;;;;;;19.52;79.29;92338.00;2041606;70;20173;-78
2023/07/21 05:53:37;;;;;;;11.98;8.38;;;;;;;19.04;81.03;92335.47;2041417;70;20509;-78
2023/07/21 05:56:07;;;;;;;9.38;7.72;;;;;;;19.55;79.76;92328.03;2041584;70;20525;-78
2023/07/21 05:58:47;;;;;;;12.00;8.63;;;;;;;19.74;78.30;92317.03;2041560;70;20241;-79
2023/07/21 06:01:14;;;;;;;10.95;8.52;;;;;;;19.66;77.43;92309.03;2041808;70;20147;-78
2023/07/21 06:03:40;;;;;;;12.10;8.60;;;;;;;19.61;78.50;92301.81;2041593;70;20294;-78
2023/07/21 06:06:05;;;;;;;13.55;8.60;;;;;;;19.53;78.08;92313.00;2044753;70;20635;-77
2023/07/21 06:08:54;;;;;;;10.73;8.18;;;;;;;20.11;76.73;92309.91;2043266;70;20198;-78
2023/07/21 06:11:35;;;;;;;10.77;7.93;;;;;;;20.48;75.89;92314.22;2044761;70;20143;-78
2023/07/21 06:14:30;;;;;;;13.45;8.00;;;;;;;19.60;77.99;92317.47;2040980;70;20294;-78
2023/07/21 06:17:03;;;;;;;;;;;;;;;19.97;77.51;92301.06;2044360;70;20139;-77
2023/07/21 06:19:31;;;;;;;10.70;8.02;;;;;;;19.98;76.38;92305.41;2039179;70;20425;-77
2023/07/21 06:21:57;;;;;;;9.68;7.95;;;;;;;20.16;76.54;92302.91;2038339;70;20143;-78
2023/07/21 06:24:23;;;;;;;11.00;7.50;;;;;;;20.65;75.88;92300.19;2038303;70;20148;-79
2023/07/21 06:26:50;;;;;;;9.63;7.20;;;;;;;20.71;73.80;92298.19;2038682;70;20290;-77
2023/07/21 06:29:16;;;;;;;9.40;6.63;;;;;;;20.79;72.81;92300.44;2040635;70;20150;-78
2023/07/21 06:31:41;;;;;;;8.80;7.78;;;;;;;20.31;74.09;92304.59;2041547;70;20171;-79
2023/07/21 06:34:23;;;;;;;15.30;7.57;;;;;;;19.91;76.69;92313.09;2041597;70;20174;-78
2023/07/21 06:37:24;;;;;;;10.27;7.90;;;;;;;19.77;78.00;92304.97;2041537;70;20222;-79
2023/07/21 06:40:12;;;;;;;10.00;7.85;;;;;;;20.28;76.39;92311.69;2044919;70;20146;-78
2023/07/21 06:43:04;;;;;;;11.60;7.15;;;;;;;20.25;75.11;92310.22;2041507;70;20159;-78
2023/07/21 06:46:02;;;;;;;9.43;7.65;;;;;;;19.50;77.57;92308.66;2038260;70;20685;-80
2023/07/21 06:48:45;;;;;;;9.20;7.70;;;;;;;19.40;78.28;92305.59;2041459;70;20257;-79
2023/07/21 06:51:23;;;;;;;10.05;7.85;;;;;;;20.48;74.41;92314.22;2041919;70;20158;-77
2023/07/21 06:53:49;;;;;;;10.38;7.63;;;;;;;20.56;73.68;92320.06;2041718;70;20163;-77
2023/07/21 06:56:15;;;;;;;10.52;7.70;;;;;;;20.42;75.08;92339.09;2041364;70;20632;-77
2023/07/21 06:58:43;;;;;;;9.82;8.02;;;;;;;20.16;76.36;92342.91;2041458;70;20376;-78
2023/07/21 07:01:09;;;;;;;11.93;7.93;;;;;;;20.56;74.68;92367.97;2041452;70;20186;-77
2023/07/21 07:03:35;;;;;;;14.32;8.63;;;;;;;19.99;76.13;92381.84;2044834;70;20657;-76
2023/07/21 07:06:01;;;;;;;12.80;8.30;;;;;;;19.48;78.61;92389.28;2044715;70;20159;-78
2023/07/21 07:08:26;;;;;;;12.52;8.10;;;;;;;20.03;76.26;92384.06;2044744;70;20154;-77
2023/07/21 07:10:52;;;;;;;10.60;8.00;;;;;;;20.17;74.78;92366.47;2044785;70;20238;-76
2023/07/21 07:13:18;;;;;;;10.32;7.82;;;;;;;20.35;74.88;92384.00;2044764;70;20154;-77
2023/07/21 07:15:50;;;;;;;12.75;7.63;;;;;;;20.25;74.02;92364.50;2044663;70;20589;-78
2023/07/21 07:18:16;;;;;;;12.93;8.10;;;;;;;20.18;74.43;92390.78;2041405;70;20195;-78
2023/07/21 07:20:50;;;;;;;11.32;7.95;;;;;;;19.90;76.11;92390.94;2045178;70;20162;-80
2023/07/21 07:23:16;;;;;;;12.48;8.15;;;;;;;19.99;76.26;92403.97;2044618;70;20183;-78
2023/07/21 07:25:46;;;;;;;10.90;8.15;;;;;;;20.07;75.96;92401.28;2041535;70;20162;-78
2023/07/21 07:28:12;;;;;;;11.30;8.50;;;;;;;20.09;75.13;92392.75;2041229;70;20166;-78
2023/07/21 07:30:39;;;;;;;13.55;7.43;;;;;;;20.27;74.79;92392.41;2044430;70;20139;-79
2023/07/21 07:33:05;;;;;;;11.35;7.32;;;;;;;20.23;74.63;92381.59;2044606;70;20145;-79
2023/07/21 07:35:30;;;;;;;13.35;8.20;;;;;;;20.15;73.62;92381.44;2041204;70;20228;-78
2023/07/21 07:37:56;;;;;;;14.52;7.97;;;;;;;19.60;77.47;92379.53;2044610;70;20593;-79
2023/07/21 07:40:22;;;;;;;8.88;7.13;;;;;;;20.16;75.38;92380.06;2044393;70;20165;-79
2023/07/21 07:42:49;;;;;;;9.38;7.75;;;;;;;20.26;75.62;92374.53;2042198;70;20155;-78
2023/07/21 07:45:14;;;;;;;8.90;7.55;;;;;;;20.21;76.14;92373.00;2042541;70;20308;-78
2023/07/21 07:47:42;;;;;;;13.80;8.65;;;;;;;19.75;77.56;92381.34;2043636;70;20255;-78
2023/07/21 07:50:10;;;;;;;11.13;8.60;;;;;;;20.10;76.04;92382.03;2044819;70;20134;-78
2023/07/21 07:52:36;;;;;;;9.18;6.70;;;;;;;20.14;73.83;92356.41;2041640;70;20155;-79
2023/07/21 07:55:03;;;;;;;9.38;6.40;;;;;;;20.52;73.64;92356.44;2041165;70;20689;-78
2023/07/21 07:57:28;;;;;;;10.68;6.10;;;;;;;20.56;73.57;92373.69;2041193;70;20171;-79
2023/07/21 07:59:54;;;;;;;9.77;6.90;;;;;;;20.30;74.35;92374.63;2041264;70;20147;-78
2023/07/21 08:02:20;;;;;;;9.45;6.20;;;;;;;18.84;81.10;92360.66;2041209;70;20234;-79
2023/07/21 08:04:46;;;;;;;12.23;6.53;;;;;;;19.72;77.63;92352.00;2037968;70;20140;-78
2023/07/21 08:07:11;;;;;;;7.72;5.88;;;;;;;20.14;74.58;92348.56;2038048;70;20163;-79
2023/07/21 08:09:37;;;;;;;10.80;6.00;;;;;;;20.04;72.68;92334.78;2041836;70;20594;-76
2023/07/21 08:12:03;;;;;;;86.43;8.38;;;;;;;20.59;72.25;92331.56;2041826;70;20175;-74
2023/07/21 08:14:28;;;;;;;8.55;5.15;;;;;;;20.76;70.80;92339.75;2041431;70;20140;-77
2023/07/21 08:16:54;;;;;;;8.30;5.00;;;;;;;20.41;72.24;92335.50;2042072;70;20145;-78
2023/07/21 08:19:20;;;;;;;9.93;4.68;;;;;;;20.42;69.88;92342.66;2042855;70;20191;-74
2023/07/21 08:21:48;;;;;;;8.50;4.68;;;;;;;20.27;69.22;92363.81;2041538;70;20206;-73
2023/07/21 08:24:15;;;;;;;9.60;4.70;;;;;;;20.35;69.95;92371.84;2038043;70;20155;-75
2023/07/21 08:26:42;;;;;;;7.82;4.88;;;;;;;20.12;70.41;92377.09;2038077;70;20235;-77
2023/07/21 08:29:09;;;;;;;6.25;5.20;;;;;;;19.84;72.51;92388.66;2041374;70;20190;-78
2023/07/21 08:31:35;;;;;;;6.13;4.20;;;;;;;20.03;72.31;92407.63;2041742;70;20222;-78
2023/07/21 08:34:00;;;;;;;7.13;4.60;;;;;;;20.18;72.52;92416.50;2041971;70;20234;-77
2023/07/21 08:36:26;;;;;;;7.07;4.25;;;;;;;20.10;72.80;92424.91;2041664;70;20143;-77
2023/07/21 08:38:52;;;;;;;8.05;4.25;;;;;;;20.02;72.94;92454.75;2041004;70;20147;-82
2023/07/21 08:41:20;;;;;;;5.85;4.05;;;;;;;20.10;71.83;92474.19;2042220;70;20143;-78
2023/07/21 08:43:48;;;;;;;6.88;4.70;;;;;;;19.42;73.86;92500.44;2041689;70;20159;-77
2023/07/21 08:46:15;;;;;;;9.63;5.13;;;;;;;18.84;78.20;92500.38;2041017;70;20163;-80
2023/07/21 08:48:41;;;;;;;7.88;5.18;;;;;;;19.20;76.43;92509.19;2037882;70;20167;-84
2023/07/21 08:51:07;;;;;;;9.45;4.80;;;;;;;19.32;75.87;92513.75;2038289;70;20162;-76
2023/07/21 08:53:33;;;;;;;6.80;5.00;;;;;;;19.24;75.06;92514.25;2041001;70;20159;-75
2023/07/21 08:56:01;;;;;;;10.95;6.30;;;;;;;19.11;74.67;92521.06;2041083;70;20184;-83
2023/07/21 08:58:28;;;;;;;10.75;5.43;;;;;;;19.09;74.68;92515.28;2040854;70;20169;-78
2023/07/21 09:00:56;;;;;;;8.23;4.90;;;;;;;19.25;74.23;92521.44;2041516;70;20212;-78
2023/07/21 09:03:23;;;;;;;11.50;4.72;;;;;;;19.17;74.84;92524.78;2041699;70;20602;-79
2023/07/21 09:05:50;;;;;;;7.95;4.50;;;;;;;19.12;74.91;92523.22;2042059;70;20151;-84
2023/07/21 09:08:34;;;;;;;6.70;3.97;;;;;;;19.14;74.74;92511.13;2042151;70;20131;-80
2023/07/21 09:11:02;;;;;;;7.00;4.22;;;;;;;19.16;73.88;92491.97;2038415;70;20167;-77
2023/07/21 09:13:28;;;;;;;8.10;4.55;;;;;;;19.33;73.37;92487.38;2041723;70;20219;-80
2023/07/21 09:15:56;;;;;;;8.30;4.80;;;;;;;19.40;72.90;92459.72;2041660;70;20501;-79
2023/07/21 09:18:42;;;;;;;10.55;4.60;;;;;;;19.41;74.32;92473.31;2041587;70;20261;-83
2023/07/21 09:21:15;;;;;;;7.03;4.45;;;;;;;19.36;74.48;92491.00;2042024;70;20132;-86
2023/07/21 09:23:41;;;;;;;8.80;5.13;;;;;;;19.20;76.01;92494.91;2041594;70;20170;-79
2023/07/21 09:26:07;;;;;;;8.98;5.05;;;;;;;18.90;75.66;92514.06;2041882;70;20593;-79
2023/07/21 09:28:44;;;;;;;10.95;4.95;;;;;;;18.91;75.95;92527.66;2041737;70;20138;-73
2023/07/21 09:31:12;;;;;;;8.20;4.55;;;;;;;18.81;75.97;92509.56;2041577;70;20143;-76
2023/07/21 09:33:39;;;;;;;8.73;4.82;;;;;;;18.77;75.45;92498.75;2041473;70;20594;-73
2023/07/21 09:36:06;;;;;;;6.85;5.45;;;;;;;19.00;74.24;92500.81;2041539;70;20154;-74
2023/07/21 09:38:34;;;;;;;7.32;4.38;;;;;;;18.85;72.88;92510.38;2041335;70;20605;-74
2023/07/21 09:41:23;;;;;;;5.82;4.13;;;;;;;18.84;73.92;92517.50;2038215;70;20171;-76
2023/07/21 09:43:48;;;;;;;8.45;4.50;;;;;;;19.21;73.52;92515.63;2038273;70;20151;-76
2023/07/21 09:46:14;;;;;;;9.20;4.95;;;;;;;19.27;73.87;92504.34;2041613;70;20162;-75
2023/07/21 09:48:41;;;;;;;8.55;4.68;;;;;;;19.41;73.71;92495.41;2041584;70;20154;-73
2023/07/21 09:51:07;;;;;;;8.13;4.63;;;;;;;19.54;72.45;92500.75;2041523;70;20585;-73
2023/07/21 09:53:45;;;;;;;9.50;4.88;;;;;;;19.34;74.57;92499.53;2041577;70;20243;-74
2023/07/21 09:56:13;;;;;;;9.55;4.07;;;;;;;19.34;73.01;92496.69;2041741;70;20135;-78
2023/07/21 09:59:03;;;;;;;5.38;3.70;;;;;;;19.74;69.96;92494.81;2041416;70;20155;-78
2023/07/21 10:01:29;;;;;;;6.43;3.63;;;;;;;19.97;68.91;92490.34;2041476;70;20144;-77
2023/07/21 10:03:57;;;;;;;7.88;4.30;;;;;;;20.24;69.58;92490.94;2041796;70;20241;-78
2023/07/21 10:06:25;;;;;;;7.45;4.43;;;;;;;20.53;69.60;92495.16;2041596;70;20139;-79
2023/07/21 10:08:52;;;;;;;5.05;3.78;;;;;;;20.53;71.84;92481.59;2041846;70;20612;-81
2023/07/21 10:11:18;;;;;;;6.72;4.18;;;;;;;20.38;68.41;92476.94;2041759;70;20147;-76
2023/07/21 10:13:45;;;;;;;7.78;4.85;;;;;;;20.72;68.78;92467.66;2041438;70;20158;-79
2023/07/21 10:16:11;;;;;;;6.78;4.40;;;;;;;20.53;68.91;92478.72;2041526;70;20532;-79
2023/07/21 10:19:14;;;;;;;7.97;4.50;;;;;;;21.41;67.89;92482.53;2041326;70;20183;-79
2023/07/21 10:21:50;;;;;;;7.20;4.40;;;;;;;21.47;65.28;92474.03;2024330;71;20183;-79
2023/07/21 10:24:24;;;;;;;6.07;3.97;;;;;;;21.31;65.36;92468.75;2024614;71;20284;-79
2023/07/21 10:27:07;;;;;;;5.88;4.40;;;;;;;21.06;66.43;92458.97;2024690;71;20145;-78
2023/07/21 10:29:33;;;;;;;5.57;3.90;;;;;;;21.08;67.77;92461.88;2024930;71;20149;-89
2023/07/21 10:32:03;;;;;;;5.20;3.97;;;;;;;20.98;64.07;92450.25;2026124;71;20588;-76
2023/07/21 10:34:37;;;;;;;4.32;3.20;;;;;;;21.08;65.10;92452.59;2027112;71;20171;-77
2023/07/21 10:37:04;;;;;;;5.47;3.42;;;;;;;21.16;65.81;92450.56;2024661;71;20517;-79
2023/07/21 10:39:42;;;;;;;7.97;3.38;;;;;;;20.86;68.93;92462.19;2024454;70;20149;-79
2023/07/21 10:42:10;;;;;;;4.47;3.20;;;;;;;21.03;67.36;92463.94;2024427;71;20149;-83
2023/07/21 10:44:37;;;;;;;6.22;3.35;;;;;;;21.25;69.57;92477.19;2024737;71;20196;-84
2023/07/21 10:47:05;;;;;;;5.20;3.42;;;;;;;21.35;69.78;92470.94;2024643;71;20145;-85
2023/07/21 10:49:31;;;;;;;5.38;3.35;;;;;;;21.35;67.51;92491.00;2024586;71;20232;-78
2023/07/21 10:51:57;;;;;;;5.45;3.70;;;;;;;20.50;68.06;92491.53;2024033;71;20508;-78
2023/07/21 10:54:23;;;;;;;4.82;3.55;;;;;;;21.20;66.43;92499.28;2024308;71;20229;-76
2023/07/21 10:56:51;;;;;;;5.50;3.40;;;;;;;21.40;68.80;92501.84;2034827;70;20139;-80
2023/07/21 10:59:18;;;;;;;5.80;3.60;;;;;;;21.84;67.36;92503.97;2038297;70;20231;-77
2023/07/21 11:01:50;;;;;;;6.93;3.50;;;;;;;20.93;66.36;92509.53;2037916;70;20610;-73
2023/07/21 11:04:18;;;;;;;5.07;3.40;;;;;;;21.08;65.10;92496.22;2038283;70;20178;-79
2023/07/21 11:06:45;;;;;;;8.77;3.92;;;;;;;20.96;67.05;92490.28;2037925;70;20532;-78
2023/07/21 11:09:12;;;;;;;6.43;3.60;;;;;;;21.38;69.94;92501.78;2038031;70;20240;-79
2023/07/21 11:11:42;;;;;;;4.43;3.33;;;;;;;21.56;68.60;92487.06;2043470;70;20158;-79
2023/07/21 11:14:12;;;;;;;6.25;3.40;;;;;;;21.73;66.02;92483.06;2044640;70;20261;-78
2023/07/21 11:17:02;;;;;;;4.30;3.20;;;;;;;21.53;68.69;92469.13;2044694;70;20624;-79
2023/07/21 11:19:30;;;;;;;5.78;3.10;;;;;;;21.57;70.02;92463.44;2044664;70;20150;-79
2023/07/21 11:21:56;;;;;;;5.50;3.67;;;;;;;21.77;70.50;92462.34;2044557;70;20151;-78
2023/07/21 11:24:29;;;;;;;3.97;2.72;;;;;;;21.68;70.76;92472.22;2044756;70;20150;-77
2023/07/21 11:27:06;;;;;;;5.07;2.80;;;;;;;21.75;69.61;92462.28;2044618;70;20676;-79
2023/07/21 11:29:35;;;;;;;4.40;2.60;;;;;;;22.28;68.75;92449.50;2044675;70;20167;-77
2023/07/21 11:32:14;;;;;;;3.03;2.30;;;;;;;23.18;67.28;92459.16;2044814;70;20143;-85
2023/07/21 11:34:41;;;;;;;6.90;3.00;;;;;;;24.09;64.20;92444.13;2044779;70;20153;-89
2023/07/21 11:37:06;;;;;;;5.55;3.00;;;;;;;25.06;60.38;92452.53;2044759;70;20135;-90
2023/07/21 11:39:33;;;;;;;8.23;3.38;;;;;;;24.93;57.37;92447.44;2044852;70;20234;-87
2023/07/21 11:41:59;;;;;;;4.22;2.83;;;;;;;25.30;52.78;92446.13;2044791;70;20206;-89
2023/07/21 11:44:35;;;;;;;4.65;2.85;;;;;;;25.19;52.51;92461.22;2044891;70;20563;-89
2023/07/21 11:47:09;;;;;;;3.95;2.80;;;;;;;30.85;42.78;92453.13;2044926;70;20139;-88